createdAt,value
2023-04-23T06:48:44.856Z,16.07
2023-04-23T06:49:03.573Z,16.03
2023-04-23T06:49:09.569Z,15.96
2023-04-23T06:49:20.114Z,15.94
2023-04-23T06:49:29.759Z,15.85
2023-04-23T06:49:39.718Z,15.82
2023-04-23T06:49:49.876Z,15.84
2023-04-23T06:50:10.046Z,15.99
2023-04-23T06:50:20.295Z,16.06
2023-04-23T06:50:30.443Z,16.14
2023-04-23T06:50:40.416Z,16.16
2023-04-23T06:50:50.570Z,16.22
2023-04-23T06:51:00.643Z,16.30
2023-04-23T06:51:10.943Z,16.34
2023-04-23T06:51:21.132Z,16.37
2023-04-23T06:51:31.191Z,16.44
2023-04-23T06:51:41.357Z,16.49
2023-04-23T06:51:51.439Z,16.58
2023-04-23T06:52:01.438Z,16.59
2023-04-23T06:52:11.595Z,16.62
2023-04-23T06:52:21.618Z,16.71
2023-04-23T06:52:31.961Z,16.77
2023-04-23T06:52:41.937Z,16.83
2023-04-23T06:52:52.152Z,16.86
2023-04-23T06:53:02.184Z,16.88
2023-04-23T06:53:12.392Z,16.95
2023-04-23T06:53:22.474Z,16.98
2023-04-23T06:53:32.578Z,17.03
2023-04-23T06:53:42.632Z,17.06
2023-04-23T06:53:52.841Z,17.03
2023-04-23T06:54:02.885Z,17.03
2023-04-23T06:54:13.028Z,17.07
2023-04-23T06:54:23.160Z,17.11
2023-04-23T06:54:33.332Z,17.10
2023-04-23T06:54:43.760Z,17.07
2023-04-23T06:54:53.498Z,17.11
2023-04-23T06:55:04.721Z,17.11
2023-04-23T06:55:13.784Z,17.14
2023-04-23T06:55:23.974Z,17.18
2023-04-23T06:55:34.028Z,17.23
2023-04-23T06:55:44.188Z,17.32
2023-04-23T06:55:54.300Z,17.38
2023-04-23T06:56:14.600Z,17.47
2023-04-23T06:56:24.707Z,17.54
2023-04-23T06:56:34.860Z,17.63
2023-04-23T06:56:44.834Z,17.64
2023-04-23T06:56:55.166Z,17.71
2023-04-23T06:57:05.099Z,17.71
2023-04-23T06:57:15.291Z,17.76
2023-04-23T06:57:25.466Z,17.79
2023-04-23T06:57:35.656Z,17.81
2023-04-23T06:57:45.710Z,17.84
2023-04-23T06:57:55.921Z,17.81
2023-04-23T06:58:06.073Z,17.87
2023-04-23T06:58:16.578Z,17.89
2023-04-23T06:58:26.346Z,17.89
2023-04-23T06:58:36.424Z,17.97
2023-04-23T06:58:46.618Z,18.00
2023-04-23T06:58:56.794Z,17.99
2023-04-23T06:59:06.790Z,18.00
2023-04-23T06:59:16.850Z,18.00
2023-04-23T06:59:27.210Z,18.02
2023-04-23T06:59:37.264Z,18.00
2023-04-23T06:59:47.321Z,18.04
2023-04-23T06:59:57.386Z,18.09
2023-04-23T07:00:07.536Z,18.10
2023-04-23T07:00:17.815Z,18.12
2023-04-23T07:00:27.782Z,18.13
2023-04-23T07:00:37.884Z,18.15
2023-04-23T07:00:47.931Z,18.18
2023-04-23T07:00:58.204Z,18.18
2023-04-23T07:01:09.044Z,18.21
2023-04-23T07:01:18.460Z,18.21
2023-04-23T07:01:28.520Z,18.19
2023-04-23T07:01:38.735Z,18.21
2023-04-23T07:01:48.772Z,18.24
2023-04-23T07:01:58.998Z,18.25
2023-04-23T07:02:09.153Z,18.27
2023-04-23T07:02:19.221Z,18.31
2023-04-23T07:02:29.363Z,18.34
2023-04-23T07:02:39.618Z,18.34
2023-04-23T07:02:49.622Z,18.31
2023-04-23T07:02:59.854Z,18.34
2023-04-23T07:03:10.041Z,18.40
2023-04-23T07:03:20.017Z,18.42
2023-04-23T07:03:30.283Z,18.49
2023-04-23T07:03:40.363Z,18.49
2023-04-23T07:03:50.416Z,18.50
2023-04-23T07:04:00.712Z,18.55
2023-04-23T07:04:10.730Z,18.58
2023-04-23T07:04:20.816Z,18.59
2023-04-23T07:04:31.061Z,18.61
2023-04-23T07:04:41.187Z,18.62
2023-04-23T07:04:51.124Z,18.62
2023-04-23T07:05:01.309Z,18.67
2023-04-23T07:05:11.269Z,18.72
2023-04-23T07:05:21.580Z,18.73
2023-04-23T07:05:32.168Z,18.80
2023-04-23T07:05:42.538Z,18.86
2023-04-23T07:05:51.788Z,18.90
2023-04-23T07:06:01.911Z,18.92
2023-04-23T07:06:12.014Z,18.95
2023-04-23T07:06:22.228Z,18.99
2023-04-23T07:06:32.264Z,18.99
2023-04-23T07:06:52.510Z,19.05
2023-04-23T07:07:02.630Z,19.08
2023-04-23T07:07:12.746Z,19.06
2023-04-23T07:07:22.950Z,19.06
2023-04-23T07:07:33.001Z,19.08
2023-04-23T07:07:43.303Z,19.13
2023-04-23T07:07:53.311Z,19.15
2023-04-23T07:08:03.371Z,19.17
2023-04-23T07:08:13.610Z,19.23
2023-04-23T07:08:23.597Z,19.23
2023-04-23T07:08:33.767Z,19.28
2023-04-23T07:08:43.935Z,19.31
2023-04-23T07:08:53.956Z,19.38
2023-04-23T07:09:04.105Z,19.38
2023-04-23T07:09:14.260Z,19.40
2023-04-23T07:09:24.476Z,19.39
2023-04-23T07:09:34.555Z,19.46
2023-04-23T07:09:44.749Z,19.47
2023-04-23T07:09:54.808Z,19.51
2023-04-23T07:10:04.975Z,19.57
2023-04-23T07:10:17.778Z,19.65
2023-04-23T07:10:25.237Z,19.65
2023-04-23T07:10:35.409Z,19.69
2023-04-23T07:10:45.567Z,19.72
2023-04-23T07:10:55.618Z,19.75
2023-04-23T07:11:05.755Z,19.80
2023-04-23T07:11:15.811Z,19.86
2023-04-23T07:11:26.040Z,19.88
2023-04-23T07:11:36.092Z,19.94
2023-04-23T07:11:46.219Z,20.06
2023-04-23T07:11:56.278Z,20.05
2023-04-23T07:12:06.434Z,20.03
2023-04-23T07:12:16.571Z,19.97
2023-04-23T07:12:26.771Z,19.84
2023-04-23T07:12:36.785Z,19.72
2023-04-23T07:12:47.068Z,19.65
2023-04-23T07:12:57.133Z,19.68
2023-04-23T07:13:07.479Z,19.68
2023-04-23T07:13:17.423Z,19.70
2023-04-23T07:13:27.911Z,19.78
2023-04-23T07:13:37.731Z,19.86
2023-04-23T07:13:47.876Z,19.94
2023-04-23T07:13:57.920Z,20.03
2023-04-23T07:14:08.153Z,20.16
2023-04-23T07:14:18.181Z,20.27
2023-04-23T07:14:28.467Z,20.27
2023-04-23T07:14:38.477Z,20.38
2023-04-23T07:14:48.568Z,20.38
2023-04-23T07:14:58.797Z,20.33
2023-04-23T07:15:09.122Z,20.27
2023-04-23T07:15:19.162Z,20.21
2023-04-23T07:15:29.088Z,20.16
2023-04-23T07:15:39.356Z,20.10
2023-04-23T07:15:49.364Z,20.05
2023-04-23T07:15:59.530Z,19.98
2023-04-23T07:16:09.766Z,19.93
2023-04-23T07:16:21.891Z,19.83
2023-04-23T07:16:29.887Z,19.76
2023-04-23T07:16:40.841Z,19.70
2023-04-23T07:16:50.156Z,19.60
2023-04-23T07:17:00.384Z,19.53
2023-04-23T07:17:10.389Z,19.48
2023-04-23T07:17:20.746Z,19.43
2023-04-23T07:17:30.666Z,19.39
2023-04-23T07:17:50.961Z,19.38
2023-04-23T07:18:01.029Z,19.33
2023-04-23T07:18:11.147Z,19.31
2023-04-23T07:18:21.263Z,19.29
2023-04-23T07:18:32.174Z,19.25
2023-04-23T07:18:41.627Z,19.21
2023-04-23T07:18:51.589Z,19.15
2023-04-23T07:19:01.915Z,19.15
2023-04-23T07:19:11.941Z,19.10
2023-04-23T07:19:21.956Z,19.11
2023-04-23T07:19:42.282Z,19.08
2023-04-23T07:19:52.283Z,19.10
2023-04-23T07:20:02.494Z,19.06
2023-04-23T07:20:12.510Z,19.06
2023-04-23T07:20:22.702Z,19.08
2023-04-23T07:20:32.793Z,19.10
2023-04-23T07:20:42.889Z,19.17
2023-04-23T07:20:53.128Z,19.29
2023-04-23T07:21:03.216Z,19.36
2023-04-23T07:21:13.271Z,19.47
2023-04-23T07:21:23.513Z,19.60
2023-04-23T07:21:33.508Z,19.69
2023-04-23T07:21:43.626Z,19.79
2023-04-23T07:21:53.722Z,19.93
2023-04-23T07:22:03.985Z,19.97
2023-04-23T07:22:14.083Z,20.00
2023-04-23T07:22:24.185Z,20.02
2023-04-23T07:22:34.324Z,19.98
2023-04-23T07:22:44.448Z,19.97
2023-04-23T07:22:54.553Z,19.91
2023-04-23T07:23:04.647Z,19.88
2023-04-23T07:23:14.802Z,19.87
2023-04-23T07:23:24.935Z,19.84
2023-04-23T07:23:35.028Z,19.80
2023-04-23T07:23:45.302Z,19.75
2023-04-23T07:23:55.429Z,19.75
2023-04-23T07:24:05.427Z,19.72
2023-04-23T07:24:15.450Z,19.69
2023-04-23T07:24:25.641Z,19.61
2023-04-23T07:24:35.905Z,19.55
2023-04-23T07:24:45.873Z,19.51
2023-04-23T07:24:56.050Z,19.51
2023-04-23T07:25:06.082Z,19.43
2023-04-23T07:25:16.062Z,19.40
2023-04-23T07:25:26.381Z,19.40
2023-04-23T07:25:36.469Z,19.36
2023-04-23T07:25:46.616Z,19.36
2023-04-23T07:25:56.705Z,19.35
2023-04-23T07:26:06.876Z,19.36
2023-04-23T07:26:16.960Z,19.36
2023-04-23T07:26:27.056Z,19.38
2023-04-23T07:26:37.140Z,19.40
2023-04-23T07:26:47.360Z,19.40
2023-04-23T07:26:57.416Z,19.42
2023-04-23T07:27:07.721Z,19.43
2023-04-23T07:27:17.719Z,19.43
2023-04-23T07:27:27.797Z,19.46
2023-04-23T07:27:37.928Z,19.51
2023-04-23T07:27:48.068Z,19.57
2023-04-23T07:27:58.707Z,19.65
2023-04-23T07:28:08.269Z,19.72
2023-04-23T07:28:18.471Z,19.75
2023-04-23T07:28:28.669Z,19.80
2023-04-23T07:28:38.755Z,19.90
2023-04-23T07:28:50.274Z,19.97
2023-04-23T07:28:58.949Z,19.98
2023-04-23T07:29:09.056Z,20.05
2023-04-23T07:29:19.266Z,20.03
2023-04-23T07:29:29.335Z,20.02
2023-04-23T07:29:39.336Z,20.05
2023-04-23T07:29:49.647Z,20.02
2023-04-23T07:29:59.600Z,20.03
2023-04-23T07:30:09.726Z,20.06
2023-04-23T07:30:19.879Z,20.05
2023-04-23T07:30:30.065Z,20.03
2023-04-23T07:30:40.127Z,20.09
2023-04-23T07:30:50.310Z,20.02
2023-04-23T07:31:00.538Z,19.97
2023-04-23T07:31:10.581Z,19.93
2023-04-23T07:31:20.856Z,19.86
2023-04-23T07:31:30.816Z,19.83
2023-04-23T07:31:40.981Z,19.79
2023-04-23T07:31:51.133Z,19.73
2023-04-23T07:32:01.303Z,19.72
2023-04-23T07:32:11.473Z,19.63
2023-04-23T07:32:21.455Z,19.65
2023-04-23T07:32:31.697Z,19.72
2023-04-23T07:32:41.787Z,19.78
2023-04-23T07:32:51.846Z,19.80
2023-04-23T07:33:01.939Z,19.84
2023-04-23T07:33:12.230Z,19.79
2023-04-23T07:33:22.303Z,19.86
2023-04-23T07:33:32.360Z,19.98
2023-04-23T07:33:42.502Z,20.08
2023-04-23T07:33:52.557Z,20.13
2023-04-23T07:34:02.777Z,20.16
2023-04-23T07:34:12.933Z,20.28
2023-04-23T07:34:22.919Z,20.42
2023-04-23T07:34:33.123Z,20.53
2023-04-23T07:34:43.609Z,20.53
2023-04-23T07:34:53.354Z,20.53
2023-04-23T07:35:03.505Z,20.46
2023-04-23T07:35:13.586Z,20.46
2023-04-23T07:35:23.782Z,20.46
2023-04-23T07:35:33.802Z,20.38
2023-04-23T07:35:44.011Z,20.25
2023-04-23T07:35:54.122Z,20.13
2023-04-23T07:36:04.132Z,19.98
2023-04-23T07:36:14.380Z,19.94
2023-04-23T07:36:24.558Z,19.86
2023-04-23T07:36:34.762Z,19.76
2023-04-23T07:36:44.783Z,19.66
2023-04-23T07:36:54.992Z,19.57
2023-04-23T07:37:07.916Z,19.53
2023-04-23T07:37:15.155Z,19.46
2023-04-23T07:37:25.280Z,19.40
2023-04-23T07:37:35.525Z,19.36
2023-04-23T07:37:45.623Z,19.32
2023-04-23T07:37:55.848Z,19.32
2023-04-23T07:38:15.980Z,19.23
2023-04-23T07:38:26.175Z,19.21
2023-04-23T07:38:36.252Z,19.23
2023-04-23T07:38:46.395Z,19.18
2023-04-23T07:38:56.511Z,19.15
2023-04-23T07:39:06.587Z,19.08
2023-04-23T07:39:16.712Z,19.06
2023-04-23T07:39:26.871Z,19.01
2023-04-23T07:39:36.967Z,18.98
2023-04-23T07:39:47.361Z,18.95
2023-04-23T07:39:57.207Z,18.87
2023-04-23T07:40:07.294Z,18.80
2023-04-23T07:40:17.403Z,18.74
2023-04-23T07:40:27.591Z,18.62
2023-04-23T07:40:37.627Z,18.58
2023-04-23T07:40:47.695Z,18.52
2023-04-23T07:40:57.935Z,18.47
2023-04-23T07:41:08.093Z,18.50
2023-04-23T07:41:18.224Z,18.46
2023-04-23T07:41:28.329Z,18.44
2023-04-23T07:41:38.436Z,18.42
2023-04-23T07:41:48.545Z,18.40
2023-04-23T07:41:58.699Z,18.39
2023-04-23T07:42:08.865Z,18.37
2023-04-23T07:42:21.060Z,18.36
2023-04-23T07:42:29.017Z,18.40
2023-04-23T07:42:39.349Z,18.37
2023-04-23T07:42:49.387Z,18.39
2023-04-23T07:42:59.601Z,18.40
2023-04-23T07:43:09.676Z,18.34
2023-04-23T07:43:29.920Z,18.46
2023-04-23T07:43:40.130Z,18.49
2023-04-23T07:43:50.122Z,18.49
2023-04-23T07:44:00.241Z,18.46
2023-04-23T07:44:10.336Z,18.44
2023-04-23T07:44:20.544Z,18.44
2023-04-23T07:44:30.656Z,18.44
2023-04-23T07:44:40.688Z,18.43
2023-04-23T07:44:50.822Z,18.39
2023-04-23T07:45:01.006Z,18.39
2023-04-23T07:45:11.080Z,18.31
2023-04-23T07:45:21.303Z,18.24
2023-04-23T07:45:31.321Z,18.21
2023-04-23T07:45:42.116Z,18.10
2023-04-23T07:45:51.465Z,18.02
2023-04-23T07:46:01.763Z,17.92
2023-04-23T07:46:11.869Z,17.88
2023-04-23T07:46:22.067Z,17.84
2023-04-23T07:46:32.124Z,17.79
2023-04-23T07:46:42.097Z,17.76
2023-04-23T07:46:52.350Z,17.76
2023-04-23T07:47:02.449Z,17.73
2023-04-23T07:47:12.719Z,17.70
2023-04-23T07:47:22.853Z,17.69
2023-04-23T07:47:32.700Z,17.69
2023-04-23T07:47:43.042Z,17.66
2023-04-23T07:47:53.046Z,17.67
2023-04-23T07:48:03.197Z,17.70
2023-04-23T07:48:13.531Z,17.67
2023-04-23T07:48:23.591Z,17.67
2023-04-23T07:48:33.791Z,17.70
2023-04-23T07:48:43.701Z,17.70
2023-04-23T07:48:53.828Z,17.67
2023-04-23T07:49:04.054Z,17.64
2023-04-23T07:49:14.186Z,17.66
2023-04-23T07:49:24.417Z,17.67
2023-04-23T07:49:34.714Z,17.64
2023-04-23T07:49:44.616Z,17.66
